Ana Sayfa
METAR-TAF:

METAR-TAF

Havaalanları :

Kaduna, Nijerya

Enlem: 10-36N, Boylam: 007-27E, yükseklik: 645 m

METAR: eksik

Saat: 23:29 (22:29 UTC)

Tahmin

Rapor saat 11:00 UTC de 11 saat ve 29 dakika önce yapıldı.
Ayın 16'si saat 12 UTC'den ayın 17'si saat 18 UTC'ye kadar geçerli Tahmin
Rüzgar güneybatıdan 12 kt
Görüş mesafesi 10 km veya daha fazla
1000 ft yükseklikte parçalı çok bulutlu
Olasılık 30%
ayın 16'si saat 15 UTC'den ayın 16'si saat 20 UTC'ye kadar
1200 ft yükseklikte parçalı bulutlu
2000 ft yükseklikte az bulutlu, Kümülonimbus.
gök gürültülü fırtına
Dönüşüyor
ayın 16'si saat 20 UTC'den ayın 16'si saat 22 UTC'ye kadar
Rüzgar değişken yönden 2 kt
900 ft yükseklikte az bulutlu
Dönüşüyor
ayın 17'si saat 08 UTC'den ayın 17'si saat 10 UTC'ye kadar
Rüzgar güneybatıdan 10 kt
1000 ft yükseklikte parçalı çok bulutlu

TAF: DNKA 161100Z 1612/1718 22012KT 9999 BKN010 PROB30 1615/1620 TS SCT012 FEW020CB BECMG 1620/1622 VRB02KT FEW009 BECMG 1708/1710 23010KT BKN010

4.000'den fazla havaalanı için hava durumu gözlemleri ve tahminleri (METAR ve TAF raporları).

Kullanılabilir istasyonlar harita üzerinde sarı ve kırmızı noktalarla gösterilir.

İstasyonun adını görmek için fareyi noktanın üzerinde gezdirin.

Sonrasında hava gözlem ve tahminlerini görmek için tıklayın.

Haritayı değiştirmek için: yaklaştırmak için siyah artı işaretli yeşil düğmeye ve uzaklaştırmak için de eksi işaretli düğmeye hızla tıklayın; bitişik haritalar için yeşil okları kullanın.


METAR-TAF: